Time;durP1;ratioP1;P1;durP2;ratioP2;P2;SDS_P1;SDS_P2;PMS_P1;PMS_P2;Temp;Humidity;BMP_temperature;BMP_pressure;BME280_temperature;BME280_humidity;BME280_pressure;Samples;Min_cycle;Max_cycle;Signal;HPM_P1;HPM_P2
2024/02/13 00:01:01;;;;;;;4.63;1.60;;;6.80;78.60;;;8.44;56.86;97454.66;4823084;29;20050;-59
2024/02/13 00:03:29;;;;;;;6.37;2.07;;;6.70;78.30;;;8.42;57.00;97459.28;4824125;29;20054;-59
2024/02/13 00:05:58;;;;;;;3.43;1.80;;;6.70;78.50;;;8.41;56.89;97461.13;4823231;29;20050;-60
2024/02/13 00:08:27;;;;;;;5.40;2.00;;;6.70;78.60;;;8.41;57.02;97460.25;4823015;29;20046;-59
2024/02/13 00:11:13;;;;;;;5.13;2.30;;;6.70;78.30;;;8.37;56.63;97459.69;4817381;29;20043;-60
2024/02/13 00:13:43;;;;;;;4.17;1.60;;;6.60;78.30;;;8.34;56.79;97469.81;4824122;29;20411;-59
2024/02/13 00:16:10;;;;;;;5.30;2.90;;;6.60;78.80;;;8.32;56.94;97469.94;4823713;29;20502;-59
2024/02/13 00:18:38;;;;;;;5.70;2.77;;;6.50;79.20;;;8.30;57.12;97474.56;4822736;29;20055;-60
2024/02/13 00:21:07;;;;;;;4.97;2.03;;;6.50;79.30;;;8.29;57.36;97486.16;4807888;29;20050;-59
2024/02/13 00:23:36;;;;;;;5.17;1.70;;;6.60;79.10;;;8.25;57.15;97492.75;4823934;29;20403;-60
2024/02/13 00:26:06;;;;;;;6.00;1.70;;;6.50;80.00;;;8.27;57.51;97494.25;4823432;29;20054;-60
2024/02/13 00:28:38;;;;;;;5.53;1.67;;;6.60;79.60;;;8.28;57.79;97495.94;4823522;29;20046;-59
2024/02/13 00:31:07;;;;;;;3.67;1.83;;;6.60;79.20;;;8.27;57.54;97496.91;4807166;29;20042;-60
2024/02/13 00:33:35;;;;;;;6.47;1.90;;;6.60;79.30;;;8.18;58.03;97505.78;4821886;29;20043;-60
2024/02/13 00:36:03;;;;;;;3.83;1.73;;;6.60;79.80;;;8.25;57.90;97512.13;4823311;29;20061;-59
2024/02/13 00:38:31;;;;;;;9.00;3.33;;;6.60;80.10;;;8.29;57.82;97512.69;4807339;29;20049;-59
2024/02/13 00:41:04;;;;;;;4.57;1.80;;;6.70;80.20;;;8.31;58.07;97523.16;4822161;29;20546;-59
2024/02/13 00:43:31;;;;;;;6.33;2.53;;;6.70;80.20;;;8.37;58.04;97531.31;4823836;29;20050;-60
2024/02/13 00:45:59;;;;;;;6.70;1.90;;;6.80;79.80;;;8.42;58.14;97528.28;4823079;29;20065;-59
2024/02/13 00:48:27;;;;;;;4.20;2.57;;;6.80;79.80;;;8.46;57.92;97530.47;4823686;29;20045;-59
2024/02/13 00:50:55;;;;;;;3.43;1.60;;;6.90;79.60;;;8.39;58.27;97533.84;4823567;29;20038;-59
2024/02/13 00:53:22;;;;;;;4.97;2.53;;;6.90;80.20;;;8.43;58.13;97541.41;4823362;29;20050;-59
2024/02/13 00:55:51;;;;;;;5.77;2.00;;;6.90;79.90;;;8.47;58.04;97552.50;4806986;29;20046;-59
2024/02/13 00:58:19;;;;;;;6.97;2.10;;;7.00;79.70;;;8.39;58.15;97549.75;4806652;29;20061;-60
2024/02/13 01:00:46;;;;;;;4.63;1.90;;;6.90;79.10;;;8.45;58.19;97552.69;4821735;29;20054;-60
2024/02/13 01:03:14;;;;;;;6.20;1.80;;;6.80;80.10;;;8.48;57.98;97555.03;4823529;29;20054;-59
2024/02/13 01:05:43;;;;;;;4.20;1.60;;;6.90;80.50;;;8.42;57.92;97563.59;4821917;29;20057;-59
2024/02/13 01:08:10;;;;;;;6.83;2.07;;;6.80;80.20;;;8.44;57.97;97571.41;4822772;29;20045;-59
2024/02/13 01:10:38;;;;;;;5.73;1.80;;;6.80;80.40;;;8.38;57.90;97572.78;4822256;29;20042;-60
2024/02/13 01:13:07;;;;;;;8.30;2.27;;;6.70;80.30;;;8.24;57.95;97579.44;4799388;29;22193;-60
2024/02/13 01:15:36;;;;;;;4.77;2.10;;;6.60;80.10;;;8.22;57.88;97570.81;4822929;29;20042;-59
2024/02/13 01:18:04;;;;;;;3.47;1.80;;;6.60;80.70;;;8.21;57.79;97576.25;4823129;29;20050;-59
2024/02/13 01:20:33;;;;;;;4.77;2.20;;;6.50;80.70;;;8.11;58.15;97586.06;4823522;29;20043;-59
2024/02/13 01:23:00;;;;;;;5.10;1.87;;;6.40;81.00;;;8.14;57.93;97593.72;4823258;29;20054;-60
2024/02/13 01:25:30;;;;;;;4.20;2.07;;;6.40;81.50;;;8.13;58.07;97590.25;4823017;29;20042;-59
2024/02/13 01:27:58;;;;;;;3.33;1.67;;;6.40;81.50;;;8.14;57.97;97593.72;4822932;29;20050;-59
2024/02/13 01:30:26;;;;;;;4.83;1.80;;;6.50;81.50;;;8.15;57.93;97601.53;4821879;29;20061;-59
2024/02/13 01:32:53;;;;;;;7.57;2.03;;;6.40;81.10;;;8.12;57.94;97601.00;4822201;29;20046;-59
2024/02/13 01:35:21;;;;;;;5.57;2.30;;;6.40;81.20;;;8.11;57.81;97604.63;4822921;29;20051;-59
2024/02/13 01:37:49;;;;;;;5.10;1.50;;;6.30;81.30;;;8.09;57.88;97608.25;4822829;29;20054;-59
2024/02/13 01:40:17;;;;;;;4.53;1.87;;;6.40;81.20;;;8.09;57.60;97610.09;4813736;29;20532;-59
2024/02/13 01:42:48;;;;;;;8.93;2.17;;;6.40;81.00;;;8.08;57.83;97611.91;4822919;29;20050;-59
2024/02/13 01:45:16;;;;;;;6.30;2.13;;;6.30;81.00;;;8.05;57.48;97616.66;4815185;29;20076;-59
2024/02/13 01:47:44;;;;;;;5.20;2.77;;;6.30;80.90;;;8.04;57.67;97625.59;4806565;29;20498;-59
2024/02/13 01:50:17;;;;;;;2.83;1.77;;;6.20;80.80;;;8.00;57.78;97624.22;4822437;29;20053;-59
2024/02/13 01:52:48;;;;;;;4.50;2.00;;;6.20;81.60;;;7.99;57.88;97626.03;4806939;29;20514;-59
2024/02/13 01:55:20;;;;;;;7.73;2.00;;;6.20;81.30;;;7.96;57.84;97625.47;4814894;29;20046;-59
2024/02/13 01:57:49;;;;;;;3.83;2.00;;;6.20;81.70;;;7.92;57.93;97619.63;4820972;29;20050;-59
2024/02/13 02:00:18;;;;;;;4.30;1.90;;;6.20;81.60;;;7.88;57.94;97627.03;4806622;29;20201;-59
2024/02/13 02:02:49;;;;;;;9.80;2.23;;;6.10;82.30;;;7.86;58.20;97625.50;4806046;29;20141;-60
2024/02/13 02:05:16;;;;;;;8.13;2.80;;;6.10;82.30;;;7.87;58.05;97629.81;4805492;29;20047;-59
2024/02/13 02:07:45;;;;;;;4.20;1.60;;;6.00;82.00;;;7.86;57.93;97639.59;4822354;29;20053;-59
2024/02/13 02:10:13;;;;;;;4.93;1.90;;;6.00;82.00;;;7.86;58.05;97634.28;4822256;29;20050;-59
2024/02/13 02:12:41;;;;;;;7.07;2.23;;;6.10;81.70;;;7.85;57.96;97632.63;4822239;29;20503;-59
2024/02/13 02:15:12;;;;;;;5.97;2.13;;;6.00;81.20;;;7.84;57.85;97643.38;4805832;29;20046;-60
2024/02/13 02:17:39;;;;;;;7.23;2.07;;;6.00;81.10;;;7.80;57.80;97640.19;4822341;29;20057;-59
2024/02/13 02:20:07;;;;;;;5.97;2.00;;;6.00;81.20;;;7.77;57.70;97645.75;4806187;29;20522;-60
2024/02/13 02:22:36;;;;;;;5.27;2.30;;;6.00;81.20;;;7.76;57.72;97640.63;4821203;29;20058;-59
2024/02/13 02:25:07;;;;;;;7.30;2.30;;;5.90;81.10;;;7.75;57.79;97634.47;4821967;29;20062;-59
2024/02/13 02:27:35;;;;;;;5.53;2.40;;;5.90;81.40;;;7.74;57.97;97640.75;4822022;29;20426;-59
2024/02/13 02:30:06;;;;;;;5.50;2.40;;;5.90;81.50;;;7.71;57.96;97643.69;4805965;29;20050;-59
2024/02/13 02:32:34;;;;;;;5.70;2.10;;;5.90;81.50;;;7.69;57.95;97645.63;4820999;29;20058;-59
2024/02/13 02:35:02;;;;;;;5.53;2.07;;;5.80;81.50;;;7.67;58.16;97658.19;4821886;29;20066;-59
2024/02/13 02:37:31;;;;;;;6.87;2.40;;;5.80;82.30;;;7.66;58.20;97659.19;4821819;29;20058;-59
2024/02/13 02:39:59;;;;;;;5.83;1.93;;;5.70;82.30;;;7.68;58.23;97651.94;4821926;29;20058;-60
2024/02/13 02:42:27;;;;;;;8.93;2.30;;;5.80;82.80;;;7.69;58.55;97654.41;4822002;29;20057;-59
2024/02/13 02:44:54;;;;;;;3.73;1.63;;;5.80;82.70;;;7.70;58.26;97655.28;4822432;29;20057;-60
2024/02/13 02:47:22;;;;;;;3.50;1.90;;;5.90;82.50;;;7.71;58.19;97653.44;4814209;29;20046;-59
2024/02/13 02:49:50;;;;;;;7.60;2.17;;;5.90;82.10;;;7.69;58.26;97665.00;4821859;29;20050;-59
2024/02/13 02:52:18;;;;;;;6.73;2.27;;;5.80;82.40;;;7.72;58.46;97669.22;4812848;29;20053;-59
2024/02/13 02:54:46;;;;;;;4.27;1.90;;;5.80;82.80;;;7.72;58.27;97666.56;4821950;29;20057;-59
2024/02/13 02:57:13;;;;;;;7.43;2.80;;;5.80;82.60;;;7.75;58.56;97673.38;4839879;29;20050;-59
2024/02/13 02:59:41;;;;;;;5.43;1.87;;;5.90;83.00;;;7.76;58.51;97665.31;4831666;29;20050;-59
2024/02/13 03:02:08;;;;;;;3.40;1.83;;;5.90;83.00;;;7.81;58.79;97671.03;4840230;29;20046;-59
2024/02/13 03:04:36;;;;;;;11.47;2.27;;;6.00;83.40;;;7.86;58.95;97670.56;4840379;29;20058;-59
2024/02/13 03:07:04;;;;;;;4.57;1.90;;;6.10;83.50;;;7.88;58.89;97669.44;4838446;29;20058;-60
2024/02/13 03:09:31;;;;;;;3.67;1.93;;;6.10;83.80;;;7.91;59.05;97673.66;4840058;29;20069;-60
2024/02/13 03:12:00;;;;;;;8.93;3.43;;;6.20;83.80;;;7.94;59.26;97678.63;4840064;29;20079;-59
2024/02/13 03:14:29;;;;;;;7.87;2.00;;;6.20;84.50;;;7.93;59.46;97676.97;4840110;29;20038;-60
2024/02/13 03:16:56;;;;;;;6.63;2.47;;;6.20;85.60;;;7.96;59.52;97687.28;4840142;29;20049;-60
2024/02/13 03:19:24;;;;;;;6.07;2.73;;;6.30;85.40;;;7.96;59.70;97691.75;4843299;29;20494;-59
2024/02/13 03:21:52;;;;;;;5.40;1.93;;;6.30;85.70;;;8.00;59.73;97690.50;4843478;29;20054;-59
2024/02/13 03:24:19;;;;;;;4.93;2.17;;;6.30;85.60;;;8.03;59.87;97693.69;4843242;29;20065;-59
2024/02/13 03:26:47;;;;;;;6.63;2.30;;;6.40;85.40;;;8.07;59.79;97691.59;4842935;29;20054;-59
2024/02/13 03:29:15;;;;;;;8.40;3.20;;;6.40;85.30;;;8.11;59.81;97695.63;4843101;29;20046;-59
2024/02/13 03:31:42;;;;;;;6.20;2.37;;;6.40;85.20;;;8.14;59.71;97691.84;4843099;29;20046;-59
2024/02/13 03:34:10;;;;;;;6.63;3.43;;;6.40;85.30;;;8.14;59.68;97690.00;4843331;29;20050;-60
2024/02/13 03:36:38;;;;;;;4.90;2.43;;;6.40;85.20;;;8.16;59.52;97698.69;4841818;29;20050;-59
2024/02/13 03:39:06;;;;;;;7.57;2.20;;;6.40;85.30;;;8.16;59.78;97698.69;4843052;29;20505;-59
2024/02/13 03:41:41;;;;;;;8.40;2.80;;;6.40;85.50;;;8.19;59.78;97703.69;4834140;29;20045;-59
2024/02/13 03:44:12;;;;;;;7.00;1.93;;;6.40;85.60;;;8.19;59.62;97700.22;4826524;29;20429;-59
2024/02/13 03:46:42;;;;;;;6.17;2.30;;;6.50;85.50;;;8.22;59.81;97707.84;4842642;29;20050;-59
2024/02/13 03:49:09;;;;;;;8.10;3.03;;;6.50;85.50;;;8.24;59.86;97711.22;4842609;29;20042;-59
2024/02/13 03:51:40;;;;;;;6.47;2.20;;;6.50;85.20;;;8.26;59.70;97714.56;4842911;29;20061;-59
2024/02/13 03:54:09;;;;;;;5.07;2.00;;;6.50;85.10;;;8.28;59.84;97712.59;4826368;29;20046;-59
2024/02/13 03:56:37;;;;;;;7.30;3.13;;;6.50;84.90;;;8.29;59.65;97717.75;4842310;29;20519;-59
2024/02/13 03:59:06;;;;;;;9.27;2.73;;;6.50;85.50;;;8.32;59.91;97711.34;4842342;29;20050;-59
2024/02/13 04:01:34;;;;;;;5.77;2.13;;;6.60;85.20;;;8.34;59.88;97717.31;4842598;29;20057;-59
2024/02/13 04:04:04;;;;;;;4.43;2.37;;;6.60;85.00;;;8.34;59.75;97719.97;4825951;29;20057;-59
2024/02/13 04:06:35;;;;;;;7.77;2.43;;;6.60;85.00;;;8.36;59.77;97718.00;4840708;29;20057;-59
2024/02/13 04:09:06;;;;;;;7.80;2.20;;;6.60;84.80;;;8.39;59.66;97724.84;4842726;29;20514;-59
2024/02/13 04:11:35;;;;;;;7.33;2.80;;;6.60;84.70;;;8.39;59.56;97725.66;4842386;29;20490;-59
2024/02/13 04:14:03;;;;;;;4.97;2.53;;;6.60;84.70;;;8.42;59.51;97729.91;4842247;29;20050;-59
2024/02/13 04:16:30;;;;;;;8.47;2.60;;;6.70;85.10;;;8.43;59.70;97731.56;4818664;29;20042;-59
2024/02/13 04:18:58;;;;;;;7.97;2.57;;;6.70;84.90;;;8.43;59.68;97737.72;4842556;29;20422;-59
2024/02/13 04:21:26;;;;;;;5.43;2.07;;;6.70;84.50;;;8.41;59.73;97739.69;4842217;29;20441;-59
2024/02/13 04:23:54;;;;;;;6.40;2.83;;;6.70;84.60;;;8.41;59.86;97736.13;4842015;29;20517;-60
2024/02/13 04:26:22;;;;;;;4.57;2.27;;;6.60;84.50;;;8.44;59.88;97734.06;4840647;29;20049;-59
2024/02/13 04:29:03;;;;;;;13.90;3.10;;;6.60;84.50;;;8.45;59.74;97727.78;4826749;29;20038;-59
2024/02/13 04:31:31;;;;;;;4.60;2.20;;;6.60;84.50;;;8.47;59.81;97731.13;4838991;29;20050;-60
2024/02/13 04:33:59;;;;;;;7.93;3.03;;;6.70;84.30;;;8.44;59.58;97738.53;4841379;29;20524;-60
2024/02/13 04:36:27;;;;;;;8.73;3.63;;;6.70;84.70;;;8.46;59.64;97741.88;4841722;29;20281;-59
2024/02/13 04:38:55;;;;;;;6.13;2.50;;;6.60;84.40;;;8.50;59.71;97751.22;4841094;29;20058;-60
2024/02/13 04:41:23;;;;;;;5.33;3.23;;;6.70;84.00;;;8.48;59.47;97742.56;4842223;29;20494;-59
2024/02/13 04:43:54;;;;;;;5.73;2.37;;;6.70;83.80;;;8.52;59.50;97745.78;4841965;29;20053;-60
2024/02/13 04:46:24;;;;;;;6.93;2.20;;;6.70;83.50;;;8.52;59.34;97751.91;4841564;29;20130;-60
2024/02/13 04:48:53;;;;;;;5.27;2.00;;;6.70;83.30;;;8.51;59.33;97742.28;4841855;29;20403;-59
2024/02/13 04:51:23;;;;;;;4.77;2.10;;;6.70;83.10;;;8.51;59.49;97752.91;4810229;29;20055;-59
2024/02/13 04:53:51;;;;;;;5.67;1.90;;;6.70;83.30;;;8.54;59.27;97749.13;4841360;29;20046;-59
2024/02/13 04:56:19;;;;;;;6.20;2.57;;;6.70;83.10;;;8.53;59.30;97752.75;4841550;29;20045;-60
2024/02/13 04:58:47;;;;;;;4.87;2.43;;;6.70;82.60;;;8.52;59.09;97753.75;4823718;29;20056;-60
2024/02/13 05:01:14;;;;;;;3.00;1.57;;;6.60;82.70;;;8.50;59.17;97753.06;4839091;29;20069;-60
2024/02/13 05:07:19;;;;;;;6.50;2.90;;;6.70;83.20;;;8.45;59.14;97751.66;4841422;29;20045;-60
2024/02/13 05:09:17;;;;;;;6.10;2.20;;;6.60;82.90;;;8.40;59.31;97747.75;4841201;29;20057;-60
2024/02/13 05:11:45;;;;;;;5.77;2.20;;;6.60;82.80;;;8.37;59.16;97750.69;4841282;29;20407;-59
2024/02/13 05:14:12;;;;;;;8.07;2.40;;;6.50;83.20;;;8.36;59.42;97752.50;4841073;29;20057;-60
2024/02/13 05:16:41;;;;;;;4.93;2.00;;;6.50;83.00;;;8.35;59.16;97750.81;4832317;29;20061;-58
2024/02/13 05:19:09;;;;;;;5.33;2.50;;;6.50;83.80;;;8.34;59.26;97754.47;4841482;29;20414;-59
2024/02/13 05:21:36;;;;;;;5.47;2.57;;;6.50;83.90;;;8.32;59.45;97751.13;4817659;29;20521;-60
2024/02/13 05:24:05;;;;;;;4.70;2.77;;;6.60;83.10;;;8.36;59.43;97751.66;4841220;29;20053;-59
2024/02/13 05:26:35;;;;;;;7.40;6.07;;;6.60;83.20;;;8.38;59.47;97753.19;4840738;29;20050;-59
2024/02/13 05:29:04;;;;;;;6.10;4.07;;;6.60;83.30;;;8.39;59.38;97754.00;4841050;29;20065;-57
2024/02/13 05:31:33;;;;;;;4.23;3.00;;;6.60;82.80;;;8.39;59.63;97749.53;4841045;29;20429;-57
2024/02/13 05:34:01;;;;;;;5.43;2.47;;;6.60;83.10;;;8.40;59.47;97753.88;4840999;29;20042;-58
2024/02/13 05:36:29;;;;;;;6.20;2.37;;;6.60;83.20;;;8.40;59.25;97758.34;4840817;29;20046;-59
2024/02/13 05:38:57;;;;;;;6.70;2.37;;;6.60;83.30;;;8.39;59.21;97751.38;4840934;29;20049;-59
2024/02/13 05:41:25;;;;;;;4.27;2.30;;;6.60;83.40;;;8.42;59.33;97756.44;4816957;29;20054;-57
2024/02/13 05:43:52;;;;;;;6.17;3.10;;;6.60;83.40;;;8.40;59.40;97764.50;4840574;29;20054;-58
2024/02/13 05:46:20;;;;;;;3.63;2.57;;;6.60;83.50;;;8.40;59.30;97764.50;4840293;29;20081;-57
2024/02/13 05:48:49;;;;;;;7.10;2.20;;;6.60;83.40;;;8.42;59.33;97757.25;4840610;29;20058;-58
2024/02/13 05:51:18;;;;;;;5.83;2.03;;;6.60;83.70;;;8.46;59.31;97755.16;4840401;29;20058;-58
2024/02/13 05:53:46;;;;;;;3.17;1.93;;;6.60;82.90;;;8.46;59.32;97760.47;4840795;29;20289;-57
2024/02/13 05:56:14;;;;;;;3.23;2.20;;;6.70;83.10;;;8.45;59.16;97762.28;4840335;29;20422;-58
2024/02/13 05:58:57;;;;;;;4.73;3.00;;;6.70;82.80;;;8.48;59.28;97769.09;4840444;29;20053;-59
2024/02/13 06:01:25;;;;;;;3.50;2.50;;;6.70;82.80;;;8.49;59.19;97768.09;4840570;29;20056;-59
2024/02/13 06:03:56;;;;;;;4.97;2.40;;;6.70;83.20;;;8.49;59.25;97770.75;4839305;29;20502;-59
2024/02/13 06:06:25;;;;;;;3.63;2.87;;;6.70;82.90;;;8.48;59.14;97777.06;4840020;29;20434;-59
2024/02/13 06:08:53;;;;;;;5.57;1.77;;;6.70;82.60;;;8.47;59.54;97781.53;4840428;29;20065;-59
2024/02/13 06:11:23;;;;;;;4.00;1.83;;;6.70;82.70;;;8.49;59.17;97784.03;4840168;29;20046;-59
2024/02/13 06:13:51;;;;;;;3.13;2.07;;;6.70;82.80;;;8.49;59.05;97786.69;4840286;29;20053;-59
2024/02/13 06:16:19;;;;;;;4.87;2.90;;;6.70;82.40;;;8.47;59.02;97788.66;4839769;29;20499;-59
2024/02/13 06:18:47;;;;;;;4.67;2.00;;;6.70;82.30;;;8.47;58.98;97784.19;4838613;29;20058;-58
2024/02/13 06:21:18;;;;;;;3.77;2.80;;;6.70;82.10;;;8.47;59.01;97793.94;4824108;29;20057;-56
2024/02/13 06:23:50;;;;;;;2.60;1.90;;;6.70;82.30;;;8.50;59.01;97796.31;4839486;29;20050;-59
2024/02/13 06:26:19;;;;;;;6.10;2.47;;;6.70;82.40;;;8.50;59.14;97806.94;4839774;29;20052;-60
2024/02/13 06:28:46;;;;;;;3.37;2.00;;;6.70;81.90;;;8.49;59.05;97805.25;4838440;29;20057;-59
2024/02/13 06:31:14;;;;;;;6.00;2.30;;;6.70;82.50;;;8.50;59.19;97806.94;4824149;29;20072;-59
2024/02/13 06:33:42;;;;;;;5.73;2.27;;;6.70;82.30;;;8.47;58.97;97809.88;4840173;29;20505;-60
2024/02/13 06:36:10;;;;;;;4.37;2.20;;;6.60;82.50;;;8.48;59.13;97815.03;4839434;29;20046;-59
2024/02/13 06:38:38;;;;;;;3.73;2.47;;;6.60;82.70;;;8.50;59.02;97814.06;4840616;29;20046;-59
2024/02/13 06:41:06;;;;;;;6.13;2.97;;;6.70;82.70;;;8.50;59.07;97820.22;4840765;29;20052;-59
2024/02/13 06:43:34;;;;;;;5.17;2.53;;;6.70;82.40;;;8.49;58.85;97821.19;4839907;29;20049;-59
2024/02/13 06:46:03;;;;;;;4.30;1.83;;;6.70;82.90;;;8.47;59.28;97826.66;4823475;29;20057;-59
2024/02/13 06:48:31;;;;;;;3.73;2.00;;;6.60;82.50;;;8.47;59.02;97829.31;4824056;29;20057;-59
2024/02/13 06:50:59;;;;;;;3.30;2.13;;;6.60;82.70;;;8.48;59.28;97833.63;4840036;29;20414;-59
2024/02/13 06:53:27;;;;;;;4.23;2.20;;;6.70;82.70;;;8.47;59.02;97836.41;4843259;29;20049;-58
2024/02/13 06:55:55;;;;;;;4.07;1.87;;;6.60;82.50;;;8.46;59.29;97837.41;4841958;29;20061;-59
2024/02/13 06:58:23;;;;;;;5.57;2.03;;;6.60;83.10;;;8.47;59.41;97841.72;4843729;29;20046;-59
2024/02/13 07:00:51;;;;;;;4.03;2.00;;;6.70;83.60;;;8.43;59.35;97842.97;4843729;29;20049;-59
2024/02/13 07:03:19;;;;;;;3.83;2.07;;;6.60;84.20;;;8.40;59.36;97843.25;4843700;29;20494;-59
2024/02/13 07:05:48;;;;;;;7.00;2.40;;;6.50;84.80;;;8.37;59.22;97852.31;4835784;29;20057;-59
2024/02/13 07:08:16;;;;;;;5.53;1.90;;;6.50;85.50;;;8.35;59.72;97846.31;4843513;29;20042;-58
2024/02/13 07:10:43;;;;;;;4.27;3.00;;;6.50;85.30;;;8.36;59.58;97848.00;4843484;29;20046;-59
2024/02/13 07:13:11;;;;;;;5.37;2.20;;;6.50;84.80;;;8.37;59.84;97854.97;4843117;29;20045;-59
2024/02/13 07:15:39;;;;;;;9.53;2.60;;;6.60;84.60;;;8.43;59.54;97864.22;4843139;29;20050;-59
2024/02/13 07:18:08;;;;;;;3.67;1.90;;;6.70;85.00;;;8.44;59.94;97861.41;4843357;29;20409;-59
2024/02/13 07:20:36;;;;;;;4.90;2.97;;;6.70;84.60;;;8.46;59.82;97864.75;4827105;29;20406;-59
2024/02/13 07:23:03;;;;;;;3.70;2.07;;;6.70;84.60;;;8.49;59.92;97866.28;4837617;29;20434;-59
2024/02/13 07:25:31;;;;;;;3.73;2.03;;;6.70;84.30;;;8.52;59.74;97870.50;4842008;29;20054;-59
2024/02/13 07:27:59;;;;;;;2.67;1.63;;;6.70;84.20;;;8.52;59.65;97873.16;4840771;29;20054;-59
2024/02/13 07:30:27;;;;;;;4.30;2.20;;;6.70;84.20;;;8.55;59.85;97870.19;4824059;29;20050;-60
2024/02/13 07:32:55;;;;;;;6.67;2.07;;;6.70;84.10;;;8.56;59.64;97874.53;4837245;29;20049;-59
2024/02/13 07:35:23;;;;;;;4.50;2.03;;;6.70;84.60;;;8.56;59.62;97877.19;4841576;29;20333;-58
2024/02/13 07:37:51;;;;;;;4.20;1.87;;;6.70;83.90;;;8.56;59.81;97875.34;4821661;29;20178;-62
2024/02/13 07:40:19;;;;;;;5.83;2.20;;;6.80;83.80;;;8.60;59.75;97884.69;4838368;29;20042;-61
2024/02/13 07:42:47;;;;;;;5.53;2.63;;;6.80;83.60;;;8.60;59.54;97887.34;4841625;29;20050;-61
2024/02/13 07:45:14;;;;;;;10.60;3.27;;;6.80;84.00;;;8.62;59.68;97892.53;4841755;29;20046;-62
2024/02/13 07:47:42;;;;;;;3.07;2.70;;;6.80;83.70;;;8.63;59.41;97894.22;4825255;29;20061;-62
2024/02/13 07:50:10;;;;;;;7.97;3.03;;;6.80;83.40;;;8.63;59.28;97897.69;4841712;29;20077;-61
2024/02/13 07:52:39;;;;;;;4.83;2.77;;;6.80;83.10;;;8.59;59.20;97885.69;4841500;29;20410;-61
2024/02/13 07:55:07;;;;;;;6.00;2.20;;;6.80;83.00;;;8.55;59.39;97892.28;4841280;29;20049;-61
2024/02/13 07:57:35;;;;;;;4.37;3.40;;;6.70;83.00;;;8.52;59.14;97894.38;4835447;29;20045;-61
2024/02/13 08:00:04;;;;;;;5.03;3.67;;;6.70;83.30;;;8.50;59.16;97896.34;4833942;29;20062;-61
2024/02/13 08:02:33;;;;;;;5.37;3.50;;;6.70;83.20;;;8.53;59.23;97899.53;4830606;29;20361;-61
2024/02/13 08:05:01;;;;;;;4.47;2.07;;;6.80;82.90;;;8.54;59.22;97900.38;4832892;29;20305;-60
2024/02/13 08:07:28;;;;;;;5.50;2.57;;;6.80;82.30;;;8.53;59.27;97904.84;4833049;29;20061;-61
2024/02/13 08:09:56;;;;;;;6.30;3.60;;;6.80;83.80;;;8.59;59.34;97900.78;4817679;29;20054;-60
2024/02/13 08:12:24;;;;;;;3.57;2.40;;;6.90;83.00;;;8.57;59.43;97905.38;4840164;29;20046;-60
2024/02/13 08:14:52;;;;;;;4.80;2.90;;;6.80;83.00;;;8.53;59.76;97912.81;4815248;29;20053;-60
2024/02/13 08:17:20;;;;;;;6.53;2.40;;;6.80;83.00;;;8.55;59.63;97908.19;4840801;29;20052;-60
2024/02/13 08:19:47;;;;;;;6.53;2.53;;;6.80;83.30;;;8.53;59.85;97902.19;4841121;29;20085;-60
2024/02/13 08:22:18;;;;;;;4.20;2.27;;;6.80;82.90;;;8.59;59.70;97903.44;4841051;29;20101;-60
2024/02/13 08:24:46;;;;;;;5.63;1.80;;;6.90;83.70;;;8.65;59.69;97905.53;4840511;29;20053;-60
2024/02/13 08:27:18;;;;;;;3.53;2.20;;;6.90;83.20;;;8.62;59.89;97911.94;4840744;29;20050;-60
2024/02/13 08:29:45;;;;;;;4.83;2.20;;;6.90;82.90;;;8.52;59.87;97899.69;4840760;29;20116;-60
2024/02/13 08:32:13;;;;;;;3.77;1.73;;;6.90;83.40;;;8.50;60.02;97906.94;4840966;29;20050;-60
2024/02/13 08:34:41;;;;;;;3.80;1.90;;;6.90;84.00;;;8.47;60.13;97910.69;4840596;29;20060;-60
2024/02/13 08:37:09;;;;;;;6.23;2.40;;;6.80;83.50;;;8.38;60.44;97909.72;4840526;29;20033;-61
2024/02/13 08:39:36;;;;;;;5.80;1.97;;;6.80;84.10;;;8.38;60.47;97906.22;4839523;29;20124;-60
2024/02/13 08:42:04;;;;;;;7.13;3.10;;;6.80;84.60;;;8.45;60.40;97904.69;4839244;29;20046;-60
2024/02/13 08:44:34;;;;;;;5.27;2.57;;;6.80;84.60;;;8.48;60.65;97909.72;4840418;29;20061;-61
2024/02/13 08:47:02;;;;;;;8.17;1.93;;;6.90;84.80;;;8.51;60.41;97909.47;4840156;29;20050;-60
2024/02/13 08:49:30;;;;;;;4.80;2.47;;;6.90;84.70;;;8.55;60.53;97904.69;4839526;29;20057;-61
2024/02/13 08:51:58;;;;;;;5.77;2.23;;;6.90;84.40;;;8.58;60.41;97904.41;4840614;29;20056;-60
2024/02/13 08:54:26;;;;;;;4.33;2.90;;;6.90;83.70;;;8.45;60.37;97904.69;4840967;29;20042;-60
2024/02/13 08:56:53;;;;;;;4.60;2.07;;;7.00;83.40;;;8.43;60.37;97906.66;4839584;29;20046;-61
2024/02/13 08:59:21;;;;;;;4.40;2.10;;;6.90;83.20;;;8.46;60.53;97906.38;4840576;29;20044;-61
2024/02/13 09:01:49;;;;;;;3.80;2.10;;;6.90;83.80;;;8.53;60.41;97909.31;4823394;29;20498;-60
2024/02/13 09:04:16;;;;;;;4.90;2.30;;;7.00;84.80;;;8.54;60.37;97905.69;4840376;29;20045;-60
2024/02/13 09:06:44;;;;;;;5.50;2.10;;;7.00;83.50;;;8.62;60.58;97916.41;4839507;29;20502;-60
2024/02/13 09:09:12;;;;;;;4.53;1.73;;;7.10;83.50;;;8.67;60.28;97922.97;4840342;29;20053;-60
2024/02/13 09:11:41;;;;;;;2.80;1.60;;;7.20;83.00;;;8.66;60.34;97920.47;4839288;29;20046;-60
2024/02/13 09:14:11;;;;;;;4.97;1.80;;;7.20;82.40;;;8.60;60.31;97913.91;4842530;29;20045;-60
2024/02/13 09:16:40;;;;;;;6.67;1.80;;;7.10;82.60;;;8.54;60.62;97914.47;4840099;29;20050;-60
2024/02/13 09:19:08;;;;;;;4.13;1.60;;;7.10;82.70;;;8.64;60.22;97914.47;4839714;29;20041;-60
2024/02/13 09:21:36;;;;;;;7.87;2.63;;;7.10;82.80;;;8.57;60.62;97911.53;4840455;29;20054;-60
2024/02/13 09:24:05;;;;;;;7.40;2.10;;;7.10;83.10;;;8.59;60.41;97914.06;4840991;29;20046;-60
2024/02/13 09:26:33;;;;;;;2.33;1.70;;;7.10;81.90;;;8.63;60.31;97910.97;4832762;29;20057;-61
2024/02/13 09:29:01;;;;;;;2.37;1.70;;;7.10;82.30;;;8.63;60.16;97913.63;4832172;29;20521;-60
2024/02/13 09:31:29;;;;;;;5.87;1.67;;;7.10;82.10;;;8.50;60.37;97910.44;4834812;29;20046;-60
2024/02/13 09:33:57;;;;;;;5.33;2.60;;;7.10;81.50;;;8.50;60.41;97906.94;4831745;29;20494;-61
2024/02/13 09:36:25;;;;;;;2.17;1.60;;;7.10;82.10;;;8.54;60.45;97911.81;4831869;29;20205;-60
2024/02/13 09:38:53;;;;;;;2.73;1.27;;;7.20;81.40;;;8.68;60.00;97918.50;4830892;29;20076;-60
2024/02/13 09:41:21;;;;;;;3.37;2.53;;;7.20;80.50;;;8.72;59.72;97924.38;4817627;29;20460;-60
2024/02/13 09:43:49;;;;;;;6.47;3.03;;;7.30;79.40;;;8.78;59.78;97921.13;4835143;29;20057;-60
2024/02/13 09:46:18;;;;;;;3.93;1.90;;;7.50;79.10;;;8.84;59.20;97932.03;4831160;29;20053;-60
2024/02/13 09:48:47;;;;;;;2.77;1.80;;;7.50;78.00;;;8.95;58.40;97925.69;4834770;29;20056;-61
2024/02/13 09:51:18;;;;;;;2.33;1.73;;;7.60;76.20;;;9.00;58.40;97933.25;4834902;29;20065;-60
2024/02/13 09:53:50;;;;;;;2.03;1.37;;;7.70;75.30;;;9.04;57.88;97927.50;4834004;29;20049;-60
2024/02/13 09:56:18;;;;;;;2.83;1.50;;;7.70;74.80;;;9.07;58.13;97932.53;4816908;29;20053;-62
2024/02/13 09:58:47;;;;;;;5.87;1.67;;;7.70;75.60;;;8.95;57.63;97933.66;4834547;29;20494;-60
2024/02/13 10:01:15;;;;;;;5.57;2.10;;;7.70;75.10;;;9.10;57.84;97935.88;4834808;29;20401;-60
2024/02/13 10:03:43;;;;;;;3.97;1.70;;;7.70;75.10;;;9.15;57.30;97931.81;4834432;29;20061;-60
2024/02/13 10:06:12;;;;;;;7.00;1.90;;;7.80;74.00;;;9.12;57.87;97934.75;4817678;29;20061;-60
2024/02/13 10:08:41;;;;;;;7.27;1.70;;;7.80;76.60;;;9.19;58.27;97927.88;4818168;29;20054;-60
2024/02/13 10:11:14;;;;;;;3.63;1.50;;;7.70;77.20;;;9.26;57.98;97928.13;4818667;29;20076;-60
2024/02/13 10:13:42;;;;;;;3.37;1.33;;;7.70;76.50;;;9.31;57.47;97930.34;4833587;29;20054;-60
2024/02/13 10:16:23;;;;;;;6.27;2.63;;;7.80;75.90;;;9.33;56.68;97929.22;4834136;29;20053;-60
2024/02/13 10:18:54;;;;;;;2.60;1.50;;;7.90;73.80;;;9.45;56.70;97925.38;4829126;29;20042;-60
2024/02/13 10:21:25;;;;;;;4.07;1.37;;;8.00;73.30;;;9.49;56.21;97930.41;4832731;29;20061;-60
2024/02/13 10:24:11;;;;;;;2.13;1.87;;;8.10;71.50;;;9.30;55.96;97931.31;4837885;29;20057;-60
2024/02/13 10:26:39;;;;;;;2.47;1.30;;;8.00;72.20;;;9.35;56.47;97937.03;4817050;29;20624;-60
2024/02/13 10:29:07;;;;;;;4.33;1.83;;;8.00;73.70;;;9.47;56.62;97935.88;4831309;29;20045;-60
2024/02/13 10:31:36;;;;;;;3.83;1.50;;;8.10;74.00;;;9.59;56.82;97947.13;4837683;29;20161;-60
2024/02/13 10:34:09;;;;;;;5.13;1.77;;;8.20;74.40;;;9.62;56.70;97950.34;4826742;29;20042;-61
2024/02/13 10:36:41;;;;;;;2.33;1.43;;;8.30;74.30;;;9.72;56.76;97949.47;4817928;29;20065;-60
2024/02/13 10:39:12;;;;;;;6.57;2.83;;;8.30;73.80;;;9.77;56.61;97944.50;4811537;29;20046;-60
2024/02/13 10:41:44;;;;;;;4.37;1.77;;;8.30;74.80;;;9.81;56.61;97949.41;4818674;29;20647;-60